Farmers Retreat, Indiana
Current Conditions -  °F | °C
As of 8:52 PM on Saturday 20 Dec 2014 (Local Time) from KCVG Reporting Station
Haze Haze  
Wind Chill: 32°   Ceiling: 1700
Heat Index: 32°   Visibility: 5mi
Dew Point: 25°   Wind: 0mph
Humidity: 75%   Direction: NA
Pressure: 30.29"   Gusts: NA
Location:  38.9645°N, 85.0582°W
Report Text: KCVG 210152Z 00000KT 5SM HZ OVC017 00/M04 A3029 RMK AO2 SLP263 T00001039
Loading
Personal Weather Stations






























Interactive Weather Map New forecast layout! Learn more

10-Day Weather Forecast

Advertisements
Track Severe Weather on mobile